Time;durP1;ratioP1;P1;durP2;ratioP2;P2;SDS_P1;SDS_P2;PMS_P1;PMS_P2;Temp;Humidity;BMP_temperature;BMP_pressure;BME280_temperature;BME280_humidity;BME280_pressure;Samples;Min_cycle;Max_cycle;Signal;HPM_P1;HPM_P2
2023/05/11 00:00:49;;;;;;;12.90;7.50;;;;;;;6.33;55.15;100227.39;107223;1258;75009;-39
2023/05/11 00:03:17;;;;;;;14.00;8.00;;;;;;;6.31;55.19;100231.13;107264;1257;60925;-39
2023/05/11 00:05:48;;;;;;;11.00;7.90;;;;;;;6.29;55.38;100231.25;107261;1256;62534;-39
2023/05/11 00:08:15;;;;;;;14.00;8.00;;;;;;;6.27;55.56;100231.83;107272;1256;75327;-39
2023/05/11 00:10:46;;;;;;;11.60;7.00;;;;;;;6.24;55.62;100230.94;107239;1256;70231;-39
2023/05/11 00:13:15;;;;;;;11.40;7.10;;;;;;;6.15;55.54;100225.02;107242;1257;71425;-39
2023/05/11 00:15:44;;;;;;;11.70;6.80;;;;;;;6.18;55.57;100230.14;107248;1256;61892;-40
2023/05/11 00:18:11;;;;;;;9.70;5.60;;;;;;;6.15;55.79;100233.32;107257;1257;62644;-39
2023/05/11 00:20:38;;;;;;;11.10;6.30;;;;;;;6.13;56.07;100230.52;107263;1256;71739;-39
2023/05/11 00:23:05;;;;;;;13.00;6.80;;;;;;;6.09;56.12;100228.32;107278;1257;69541;-39
2023/05/11 00:25:33;;;;;;;9.50;6.30;;;;;;;6.05;56.27;100229.58;105748;1256;1003082;-39
2023/05/11 00:28:00;;;;;;;13.50;6.30;;;;;;;6.00;56.44;100228.64;107210;1257;59727;-40
2023/05/11 00:30:27;;;;;;;11.90;6.10;;;;;;;5.96;56.52;100231.05;107276;1257;62641;-39
2023/05/11 00:32:54;;;;;;;13.00;6.70;;;;;;;5.93;56.67;100231.23;107277;1256;74457;-39
2023/05/11 00:35:22;;;;;;;11.80;6.80;;;;;;;5.91;57.06;100232.16;107232;1257;68654;-39
2023/05/11 00:37:50;;;;;;;9.60;6.30;;;;;;;5.88;57.47;100234.86;107393;1257;71410;-39
2023/05/11 00:40:17;;;;;;;9.30;5.80;;;;;;;5.85;57.41;100231.21;107259;1257;61939;-39
2023/05/11 00:42:45;;;;;;;10.40;6.20;;;;;;;5.81;57.59;100232.10;107267;1256;61806;-40
2023/05/11 00:45:13;;;;;;;8.20;6.20;;;;;;;5.79;57.71;100227.68;107269;1256;75766;-39
2023/05/11 00:47:41;;;;;;;10.30;5.80;;;;;;;5.77;58.10;100231.92;107218;1257;69292;-39
2023/05/11 00:50:08;;;;;;;9.90;6.40;;;;;;;5.73;58.63;100232.23;107168;1256;73744;-39
2023/05/11 00:52:36;;;;;;;14.30;6.20;;;;;;;5.72;59.41;100233.45;107167;1259;60162;-39
2023/05/11 00:55:03;;;;;;;11.00;6.60;;;;;;;5.72;60.62;100237.27;107083;1262;60278;-39
2023/05/11 00:57:32;;;;;;;10.60;6.50;;;;;;;5.76;61.72;100235.29;107189;1256;73958;-39
2023/05/11 01:00:01;;;;;;;9.50;6.70;;;;;;;5.79;62.47;100236.41;107226;1257;69322;-40
2023/05/11 01:02:29;;;;;;;10.90;7.00;;;;;;;5.81;62.69;100236.63;107259;1256;74759;-39
2023/05/11 01:04:57;;;;;;;11.90;6.60;;;;;;;5.83;62.85;100238.63;107233;1257;59615;-39
2023/05/11 01:07:33;;;;;;;10.50;6.90;;;;;;;5.84;62.88;100239.34;107240;1256;62644;-39
2023/05/11 01:10:00;;;;;;;11.00;7.10;;;;;;;5.87;63.17;100237.20;107128;1256;75369;-39
2023/05/11 01:12:35;;;;;;;8.30;6.60;;;;;;;5.87;63.29;100235.25;107187;1258;68785;-39
2023/05/11 01:15:15;;;;;;;9.20;6.70;;;;;;;5.87;63.34;100237.88;107256;1257;73602;-39
2023/05/11 01:17:53;;;;;;;17.10;6.90;;;;;;;5.86;63.07;100235.59;107249;1256;59708;-39
2023/05/11 01:20:24;;;;;;;10.10;6.40;;;;;;;5.84;62.97;100239.88;107245;1257;59642;-39
2023/05/11 01:23:10;;;;;;;11.60;6.70;;;;;;;5.83;62.90;100242.11;107091;1257;72799;-39
2023/05/11 01:26:20;;;;;;;10.60;6.60;;;;;;;5.83;62.45;100239.86;107043;1257;67348;-39
2023/05/11 01:29:10;;;;;;;8.60;6.40;;;;;;;5.80;62.04;100242.79;107105;1261;75034;-39
2023/05/11 01:31:39;;;;;;;8.80;6.20;;;;;;;5.75;61.68;100240.59;107100;1258;59628;-39
2023/05/11 01:34:12;;;;;;;9.50;6.80;;;;;;;5.70;61.49;100242.53;107200;1257;61555;-39
2023/05/11 01:36:43;;;;;;;9.00;6.50;;;;;;;5.67;61.47;100243.77;107147;1257;74421;-39
2023/05/11 01:39:10;;;;;;;8.30;6.30;;;;;;;5.64;61.63;100243.69;107127;1262;68296;-39
2023/05/11 01:41:38;;;;;;;10.70;6.10;;;;;;;5.62;61.84;100240.34;107116;1258;73545;-39
2023/05/11 01:44:08;;;;;;;11.60;6.00;;;;;;;5.65;61.85;100242.41;107023;1257;63287;-39
2023/05/11 01:46:35;;;;;;;9.70;6.20;;;;;;;5.72;61.48;100241.56;107142;1257;62311;-39
2023/05/11 01:49:06;;;;;;;13.30;6.40;;;;;;;5.72;61.06;100239.31;106509;1258;1003778;-39
2023/05/11 01:51:36;;;;;;;11.60;6.60;;;;;;;5.75;60.85;100243.22;107072;1262;69868;-39
2023/05/11 01:54:05;;;;;;;10.60;6.40;;;;;;;5.76;60.78;100244.53;107152;1260;74351;-39
2023/05/11 01:56:33;;;;;;;10.40;6.40;;;;;;;5.77;60.69;100242.20;107165;1259;60277;-39
2023/05/11 01:59:00;;;;;;;9.20;6.60;;;;;;;5.77;60.79;100242.86;107082;1258;60767;-39
2023/05/11 02:01:28;;;;;;;10.40;6.60;;;;;;;5.76;60.55;100243.52;107057;1257;74780;-39
2023/05/11 02:03:55;;;;;;;9.50;6.50;;;;;;;5.76;60.31;100245.63;107074;1257;70323;-39
2023/05/11 02:06:23;;;;;;;10.00;6.60;;;;;;;5.73;60.51;100243.16;107099;1259;72379;-39
2023/05/11 02:08:50;;;;;;;9.50;6.60;;;;;;;5.69;60.69;100242.17;106363;1259;1003499;-39
2023/05/11 02:11:17;;;;;;;9.70;6.40;;;;;;;5.65;60.83;100244.27;107034;1259;61470;-39
2023/05/11 02:13:45;;;;;;;9.60;6.50;;;;;;;5.61;60.92;100244.78;107078;1258;74218;-39
2023/05/11 02:16:12;;;;;;;10.40;6.30;;;;;;;5.58;61.10;100247.65;107131;1258;66985;-39
2023/05/11 02:18:40;;;;;;;8.90;6.40;;;;;;;5.55;61.21;100252.30;107073;1259;72516;-39
2023/05/11 02:21:08;;;;;;;11.20;7.70;;;;;;;5.52;61.05;100253.39;106997;1258;61544;-39
2023/05/11 02:23:35;;;;;;;12.20;7.30;;;;;;;5.49;60.82;100254.41;107314;1259;59684;-39
2023/05/11 02:26:03;;;;;;;11.70;7.10;;;;;;;5.46;60.75;100258.31;107092;1257;71466;-39
2023/05/11 02:28:30;;;;;;;13.40;6.90;;;;;;;5.43;60.47;100257.83;107106;1257;69824;-39
2023/05/11 02:31:00;;;;;;;17.20;7.50;;;;;;;5.40;60.67;100259.30;107051;1259;74864;-39
2023/05/11 02:33:38;;;;;;;10.60;6.70;;;;;;;5.38;60.89;100257.47;106969;1257;60897;-39
2023/05/11 02:36:07;;;;;;;10.70;7.30;;;;;;;5.37;60.87;100263.19;107103;1259;62658;-39
2023/05/11 02:38:34;;;;;;;11.40;7.30;;;;;;;5.35;60.91;100265.55;106998;1259;73978;-39
2023/05/11 02:41:08;;;;;;;10.40;7.30;;;;;;;5.33;60.83;100264.35;107061;1259;67180;-39
2023/05/11 02:43:39;;;;;;;10.50;6.40;;;;;;;5.32;60.88;100265.84;106992;1259;74889;-39
2023/05/11 02:46:12;;;;;;;12.40;6.80;;;;;;;5.29;60.75;100265.20;107128;1257;62095;-39
2023/05/11 02:48:41;;;;;;;12.70;6.80;;;;;;;5.26;60.99;100265.21;107025;1259;62133;-39
2023/05/11 02:51:10;;;;;;;11.40;7.10;;;;;;;5.22;61.20;100265.25;107089;1258;74621;-39
2023/05/11 02:53:44;;;;;;;14.10;7.80;;;;;;;5.18;61.56;100267.01;107142;1257;68782;-39
2023/05/11 02:56:11;;;;;;;10.40;6.60;;;;;;;5.19;61.62;100272.02;106982;1264;73193;-39
2023/05/11 02:58:38;;;;;;;12.00;6.80;;;;;;;5.29;61.72;100272.36;107017;1263;60789;-40
2023/05/11 03:01:14;;;;;;;9.10;6.70;;;;;;;5.35;61.74;100271.63;107211;1258;60335;-39
2023/05/11 03:03:41;;;;;;;9.50;6.30;;;;;;;5.39;61.66;100269.23;107099;1257;75299;-39
2023/05/11 03:06:09;;;;;;;11.80;7.20;;;;;;;5.45;61.57;100268.44;107152;1259;70167;-39
2023/05/11 03:08:36;;;;;;;12.00;6.50;;;;;;;5.50;61.80;100270.65;107050;1258;74752;-39
2023/05/11 03:11:03;;;;;;;11.00;6.90;;;;;;;5.53;61.51;100276.83;107015;1260;61945;-39
2023/05/11 03:13:31;;;;;;;9.40;6.30;;;;;;;5.56;61.39;100275.29;107033;1258;60452;-39
2023/05/11 03:15:59;;;;;;;9.70;6.50;;;;;;;5.59;61.11;100277.80;106897;1257;76143;-39
2023/05/11 03:18:26;;;;;;;12.90;6.70;;;;;;;5.57;61.07;100274.89;107115;1259;66381;-39
2023/05/11 03:20:54;;;;;;;11.20;7.20;;;;;;;5.63;61.30;100280.73;106890;1259;75086;-39
2023/05/11 03:23:21;;;;;;;12.00;7.20;;;;;;;5.65;61.12;100283.90;106931;1258;60519;-39
2023/05/11 03:25:48;;;;;;;13.40;7.90;;;;;;;5.66;60.99;100283.07;107071;1259;62681;-39
2023/05/11 03:28:15;;;;;;;12.00;7.90;;;;;;;5.65;61.02;100285.24;107028;1258;75848;-39
2023/05/11 03:30:49;;;;;;;13.50;7.30;;;;;;;5.67;61.25;100286.94;107086;1259;68283;-39
2023/05/11 03:33:16;;;;;;;11.50;6.90;;;;;;;5.68;61.17;100292.90;106923;1258;74816;-39
2023/05/11 03:35:43;;;;;;;11.50;7.20;;;;;;;5.69;61.14;100292.21;107183;1261;60873;-39
2023/05/11 03:38:12;;;;;;;9.30;6.70;;;;;;;5.68;61.23;100290.23;107041;1258;60429;-39
2023/05/11 03:40:39;;;;;;;13.30;7.30;;;;;;;5.65;61.20;100290.31;107041;1258;76133;-39
2023/05/11 03:43:10;;;;;;;14.90;7.70;;;;;;;5.58;61.14;100294.93;107119;1260;67337;-39
2023/05/11 03:45:37;;;;;;;13.40;8.20;;;;;;;5.52;61.55;100295.02;107025;1258;74985;-39
2023/05/11 03:48:05;;;;;;;11.70;7.00;;;;;;;5.50;61.80;100301.73;107028;1259;60519;-39
2023/05/11 03:50:32;;;;;;;11.90;7.40;;;;;;;5.51;61.97;100300.52;106933;1257;62670;-39
2023/05/11 03:52:59;;;;;;;13.30;6.70;;;;;;;5.58;61.96;100303.88;106944;1257;74678;-39
2023/05/11 03:55:27;;;;;;;11.00;7.10;;;;;;;5.71;62.03;100308.59;107024;1259;69769;-39
2023/05/11 03:57:54;;;;;;;11.80;7.40;;;;;;;5.78;61.86;100307.36;106896;1257;75006;-39
2023/05/11 04:00:21;;;;;;;11.10;7.30;;;;;;;5.82;61.84;100311.25;106994;1257;62506;-40
2023/05/11 04:02:48;;;;;;;11.40;7.60;;;;;;;5.87;61.73;100315.89;107045;1259;61934;-39
2023/05/11 04:05:17;;;;;;;13.50;7.30;;;;;;;5.95;61.80;100317.27;106997;1260;74952;-39
2023/05/11 04:07:45;;;;;;;7.60;5.50;;;;;;;6.05;61.75;100313.25;107095;1258;66504;-39
2023/05/11 04:10:12;;;;;;;14.00;7.10;;;;;;;6.16;61.82;100315.20;107034;1259;74051;-40
2023/05/11 04:12:39;;;;;;;11.40;7.20;;;;;;;6.24;61.91;100318.98;107020;1260;61867;-39
2023/05/11 04:15:07;;;;;;;13.10;7.40;;;;;;;6.31;61.91;100321.16;107083;1259;62520;-39
2023/05/11 04:17:34;;;;;;;15.00;7.20;;;;;;;6.36;61.96;100320.25;107035;1257;76420;-39
2023/05/11 04:20:02;;;;;;;10.40;7.50;;;;;;;6.41;62.09;100317.64;107027;1259;68928;-40
2023/05/11 04:22:29;;;;;;;10.40;6.80;;;;;;;6.47;62.30;100320.94;107047;1260;74989;-39
2023/05/11 04:24:56;;;;;;;12.40;7.20;;;;;;;6.53;62.68;100320.34;107088;1259;60541;-40
2023/05/11 04:27:24;;;;;;;10.00;6.60;;;;;;;6.63;62.63;100325.65;107106;1258;61852;-40
2023/05/11 04:29:51;;;;;;;9.50;6.40;;;;;;;6.78;62.70;100327.40;107037;1258;75196;-40
2023/05/11 04:32:18;;;;;;;11.20;7.30;;;;;;;6.99;63.03;100330.05;107061;1259;70027;-41
2023/05/11 04:34:45;;;;;;;12.50;6.80;;;;;;;7.19;63.39;100334.73;107249;1257;72526;-40
2023/05/11 04:37:14;;;;;;;12.60;6.90;;;;;;;7.38;63.47;100330.46;107046;1259;60472;-40
2023/05/11 04:39:42;;;;;;;9.70;4.90;;;;;;;7.61;63.44;100330.65;107208;1259;61419;-40
2023/05/11 04:42:09;;;;;;;9.20;4.20;;;;;;;7.85;61.12;100330.48;107020;1263;76242;-40
2023/05/11 04:44:36;;;;;;;7.90;4.40;;;;;;;8.14;58.86;100332.10;107038;1259;69446;-40
2023/05/11 04:47:05;;;;;;;6.50;3.50;;;;;;;8.46;56.33;100329.54;107240;1257;72767;-40
2023/05/11 04:49:33;;;;;;;7.30;4.30;;;;;;;8.74;54.19;100328.10;107051;1258;61446;-40
2023/05/11 04:52:00;;;;;;;7.40;4.20;;;;;;;8.98;53.45;100326.86;107123;1257;60332;-39
2023/05/11 04:54:29;;;;;;;10.00;4.50;;;;;;;9.20;52.71;100328.02;107098;1257;76333;-39
2023/05/11 04:56:57;;;;;;;6.50;4.20;;;;;;;9.38;51.85;100328.13;107091;1259;69925;-39
2023/05/11 04:59:24;;;;;;;6.80;4.10;;;;;;;9.52;51.21;100325.52;107025;1258;74633;-39
2023/05/11 05:01:51;;;;;;;8.90;4.70;;;;;;;9.65;50.68;100329.25;107098;1259;61697;-39
2023/05/11 05:04:18;;;;;;;6.30;4.20;;;;;;;9.75;50.54;100327.02;107104;1259;61822;-39
2023/05/11 05:06:46;;;;;;;7.10;4.10;;;;;;;9.84;50.46;100327.17;107064;1262;74799;-39
2023/05/11 05:09:15;;;;;;;6.60;4.10;;;;;;;9.92;50.82;100328.27;107020;1259;67721;-39
2023/05/11 05:11:42;;;;;;;6.20;3.90;;;;;;;10.02;50.85;100328.77;106960;1258;72792;-39
2023/05/11 05:14:10;;;;;;;7.90;4.10;;;;;;;10.13;50.80;100328.71;107071;1259;60740;-40
2023/05/11 05:16:37;;;;;;;7.10;3.80;;;;;;;10.26;50.53;100324.24;107075;1260;60471;-40
2023/05/11 05:19:04;;;;;;;6.60;3.70;;;;;;;10.42;49.81;100325.81;107025;1259;75138;-40
2023/05/11 05:21:34;;;;;;;7.90;3.50;;;;;;;10.60;48.46;100326.29;107272;1258;67361;-40
2023/05/11 05:24:05;;;;;;;15.50;4.30;;;;;;;10.80;46.79;100325.70;107102;1262;74766;-40
2023/05/11 05:26:32;;;;;;;9.20;3.40;;;;;;;11.00;41.87;100322.73;107061;1259;61728;-40
2023/05/11 05:29:00;;;;;;;9.00;3.60;;;;;;;11.17;41.12;100322.80;107078;1262;60643;-40
2023/05/11 05:31:28;;;;;;;6.90;3.10;;;;;;;11.30;40.50;100323.77;107139;1259;76061;-40
2023/05/11 05:33:56;;;;;;;6.20;3.50;;;;;;;11.42;40.73;100330.89;107046;1259;69083;-39
2023/05/11 05:36:24;;;;;;;6.40;4.00;;;;;;;11.48;41.23;100330.70;107152;1260;73514;-39
2023/05/11 05:38:54;;;;;;;10.10;4.10;;;;;;;11.52;42.20;100335.79;107065;1258;60839;-40
2023/05/11 05:41:22;;;;;;;7.00;4.50;;;;;;;11.54;42.19;100336.79;107235;1258;60488;-40
2023/05/11 05:43:50;;;;;;;10.60;5.30;;;;;;;11.57;42.45;100337.86;107141;1260;75815;-39
2023/05/11 05:46:17;;;;;;;8.50;5.70;;;;;;;11.58;42.17;100339.75;107185;1259;69890;-40
2023/05/11 05:48:45;;;;;;;8.10;4.60;;;;;;;11.58;42.19;100341.96;107102;1259;72827;-40
2023/05/11 05:51:12;;;;;;;5.70;3.90;;;;;;;11.62;42.78;100340.42;107046;1259;61927;-40
2023/05/11 05:53:40;;;;;;;6.10;3.50;;;;;;;11.71;41.21;100341.97;107137;1260;60212;-40
2023/05/11 05:56:08;;;;;;;5.10;3.50;;;;;;;11.83;40.94;100342.31;107146;1257;73022;-40
2023/05/11 05:58:36;;;;;;;4.60;3.20;;;;;;;11.94;41.38;100338.85;107122;1259;69640;-40
2023/05/11 06:01:03;;;;;;;7.60;3.50;;;;;;;12.05;40.21;100336.44;107044;1259;74974;-40
2023/05/11 06:03:30;;;;;;;7.10;4.00;;;;;;;12.15;38.49;100336.48;107016;1259;61736;-40
2023/05/11 06:05:58;;;;;;;4.90;3.70;;;;;;;12.23;38.09;100338.96;107046;1260;62711;-40
2023/05/11 06:08:25;;;;;;;6.50;3.40;;;;;;;12.28;38.37;100343.70;107047;1257;74053;-40
2023/05/11 06:10:52;;;;;;;5.10;3.90;;;;;;;12.35;39.38;100344.42;107053;1260;70231;-40
2023/05/11 06:13:19;;;;;;;5.30;3.80;;;;;;;12.43;40.41;100344.02;107139;1260;71138;-40
2023/05/11 06:15:47;;;;;;;6.60;4.20;;;;;;;12.56;39.69;100340.17;107193;1257;60603;-40
2023/05/11 06:18:21;;;;;;;8.30;4.00;;;;;;;12.68;39.03;100338.31;107096;1259;60144;-40
2023/05/11 06:20:48;;;;;;;6.30;4.20;;;;;;;12.77;39.43;100338.70;107075;1258;76248;-40
2023/05/11 06:23:16;;;;;;;11.10;4.20;;;;;;;12.90;39.73;100338.16;107094;1259;68715;-40
2023/05/11 06:25:43;;;;;;;7.30;4.30;;;;;;;13.03;38.95;100338.11;107033;1259;71613;-40
2023/05/11 06:28:11;;;;;;;6.60;4.20;;;;;;;13.15;38.54;100336.55;107133;1259;60540;-40
2023/05/11 06:30:38;;;;;;;10.20;3.80;;;;;;;13.24;37.62;100339.52;107045;1262;60532;-40
2023/05/11 06:33:06;;;;;;;6.40;3.70;;;;;;;13.34;37.44;100338.19;107057;1262;73444;-40
2023/05/11 06:35:36;;;;;;;4.90;3.80;;;;;;;13.44;37.37;100339.45;107055;1257;69657;-40
2023/05/11 06:38:05;;;;;;;6.60;3.70;;;;;;;13.56;36.95;100338.61;107217;1258;73870;-40
2023/05/11 06:40:34;;;;;;;5.40;3.60;;;;;;;13.67;36.27;100341.33;107076;1259;60530;-40
2023/05/11 06:43:01;;;;;;;6.30;3.30;;;;;;;13.74;34.12;100338.68;107076;1257;62709;-40
2023/05/11 06:45:43;;;;;;;8.40;3.60;;;;;;;13.81;34.94;100342.11;107165;1257;74192;-40
2023/05/11 06:48:11;;;;;;;;;;;;;;;13.87;34.03;100341.30;107065;1263;69092;-40
2023/05/11 06:50:38;;;;;;;6.10;3.40;;;;;;;13.90;33.98;100340.59;107049;1257;74932;-40
2023/05/11 06:53:06;;;;;;;10.00;4.00;;;;;;;13.95;34.67;100343.80;107189;1262;60521;-40
2023/05/11 06:55:33;;;;;;;6.80;3.90;;;;;;;14.06;34.27;100344.73;107111;1259;62611;-40
2023/05/11 06:58:00;;;;;;;8.10;3.80;;;;;;;14.13;33.57;100347.94;107062;1257;75077;-40
2023/05/11 07:00:28;;;;;;;6.50;4.10;;;;;;;14.21;32.67;100348.94;107054;1260;69327;-40
2023/05/11 07:02:55;;;;;;;7.20;4.10;;;;;;;14.24;32.56;100347.13;106983;1257;72773;-40
2023/05/11 07:05:22;;;;;;;9.30;4.10;;;;;;;14.28;32.51;100346.44;107051;1259;62830;-40
2023/05/11 07:07:50;;;;;;;10.10;4.20;;;;;;;14.36;32.48;100344.73;107064;1258;62181;-40
2023/05/11 07:10:17;;;;;;;6.60;4.20;;;;;;;14.42;32.84;100341.10;107073;1259;76114;-40
2023/05/11 07:12:45;;;;;;;9.10;4.30;;;;;;;14.52;33.26;100339.82;107130;1259;70488;-40
2023/05/11 07:15:12;;;;;;;7.00;3.80;;;;;;;14.65;33.94;100344.05;107048;1260;73673;-40
2023/05/11 07:17:39;;;;;;;6.90;4.80;;;;;;;14.76;32.87;100339.73;107063;1260;60467;-40
2023/05/11 07:20:08;;;;;;;7.60;4.30;;;;;;;14.86;32.94;100342.55;107056;1259;62653;-40
2023/05/11 07:22:35;;;;;;;6.30;4.20;;;;;;;14.97;31.09;100340.70;107144;1258;73797;-40
2023/05/11 07:25:03;;;;;;;7.70;4.60;;;;;;;15.03;31.15;100339.25;107076;1260;70002;-40
2023/05/11 07:27:31;;;;;;;7.80;4.70;;;;;;;15.09;30.69;100339.17;107034;1262;75008;-40
2023/05/11 07:29:58;;;;;;;7.30;5.00;;;;;;;15.15;30.80;100337.95;106992;1260;60384;-40
2023/05/11 07:32:26;;;;;;;9.00;4.60;;;;;;;15.24;30.32;100337.40;107104;1257;61076;-41
2023/05/11 07:34:53;;;;;;;6.60;4.40;;;;;;;15.33;30.08;100334.41;107030;1259;75990;-40
2023/05/11 07:37:20;;;;;;;6.40;4.50;;;;;;;15.43;30.36;100332.38;107014;1257;69121;-40
2023/05/11 07:39:47;;;;;;;9.30;4.20;;;;;;;15.55;29.73;100335.15;107220;1262;75148;-40
2023/05/11 07:42:15;;;;;;;8.70;4.10;;;;;;;15.64;29.65;100338.34;107036;1257;62703;-40
2023/05/11 07:44:42;;;;;;;6.70;4.70;;;;;;;15.75;29.24;100334.04;107086;1257;62625;-40
2023/05/11 07:47:09;;;;;;;6.50;4.00;;;;;;;15.88;28.47;100335.85;107089;1259;75072;-40
2023/05/11 07:49:36;;;;;;;9.40;6.00;;;;;;;15.98;27.96;100330.96;107065;1262;67752;-40
2023/05/11 07:52:10;;;;;;;12.10;6.80;;;;;;;16.04;27.01;100335.51;107105;1258;74948;-40
2023/05/11 07:54:39;;;;;;;8.10;5.30;;;;;;;16.06;26.95;100332.64;107038;1259;61413;-40
2023/05/11 07:57:06;;;;;;;5.60;3.90;;;;;;;16.12;27.08;100326.44;107145;1262;62475;-40
2023/05/11 07:59:34;;;;;;;5.50;4.10;;;;;;;16.14;27.42;100320.53;107065;1260;76017;-40
2023/05/11 08:02:04;;;;;;;7.80;4.00;;;;;;;16.28;28.03;100327.81;107021;1258;69478;-40
2023/05/11 08:04:31;;;;;;;8.90;3.80;;;;;;;16.31;26.58;100327.29;107055;1259;74374;-40
2023/05/11 08:06:59;;;;;;;5.00;3.20;;;;;;;16.23;26.14;100325.94;106963;1260;61852;-40
2023/05/11 08:09:26;;;;;;;4.70;3.30;;;;;;;16.09;25.98;100320.55;107036;1258;62597;-40
2023/05/11 08:11:55;;;;;;;4.40;3.30;;;;;;;15.97;26.70;100323.47;107013;1262;76282;-40
2023/05/11 08:14:24;;;;;;;8.40;3.50;;;;;;;15.92;26.90;100325.20;107082;1262;69282;-40
2023/05/11 08:16:51;;;;;;;5.20;3.60;;;;;;;15.91;26.99;100323.14;106975;1262;74036;-40
2023/05/11 08:19:19;;;;;;;4.30;3.30;;;;;;;15.95;26.44;100317.19;107068;1257;62383;-38
2023/05/11 08:21:46;;;;;;;6.30;3.90;;;;;;;16.01;26.08;100318.96;107042;1259;62453;-39
2023/05/11 08:24:13;;;;;;;5.00;2.70;;;;;;;15.99;26.60;100314.88;107044;1262;73980;-39
2023/05/11 08:26:40;;;;;;;4.90;3.50;;;;;;;16.08;26.46;100318.83;107031;1262;68579;-39
2023/05/11 08:29:07;;;;;;;7.40;3.60;;;;;;;16.17;25.94;100318.52;107199;1260;74963;-39
2023/05/11 08:31:34;;;;;;;6.60;3.40;;;;;;;16.20;27.14;100324.98;107068;1259;61008;-39
2023/05/11 08:34:02;;;;;;;3.70;2.90;;;;;;;16.20;25.88;100324.50;107097;1258;62557;-39
2023/05/11 08:36:29;;;;;;;5.30;3.50;;;;;;;16.22;25.40;100323.98;107058;1259;75275;-39
2023/05/11 08:38:56;;;;;;;5.40;3.50;;;;;;;16.32;25.21;100322.07;107061;1257;69427;-39
2023/05/11 08:41:25;;;;;;;7.20;2.80;;;;;;;16.54;25.88;100316.69;107079;1257;74797;-40
2023/05/11 08:43:52;;;;;;;5.30;2.70;;;;;;;16.85;25.91;100312.06;107074;1262;62664;-39
2023/05/11 08:46:23;;;;;;;4.50;2.60;;;;;;;17.20;25.36;100307.02;107041;1259;60766;-40
2023/05/11 08:48:50;;;;;;;6.60;3.10;;;;;;;17.52;24.40;100306.51;107071;1262;76240;-38
2023/05/11 08:51:17;;;;;;;3.90;2.60;;;;;;;17.69;23.85;100304.67;107047;1263;68233;-40
2023/05/11 08:53:44;;;;;;;4.50;3.00;;;;;;;17.74;23.95;100310.81;107059;1258;74935;-39
2023/05/11 08:56:12;;;;;;;4.70;3.30;;;;;;;17.66;24.50;100316.50;107071;1259;60753;-39
2023/05/11 08:58:39;;;;;;;4.20;2.60;;;;;;;17.51;24.55;100318.10;107071;1258;61316;-39
2023/05/11 09:01:06;;;;;;;3.10;2.20;;;;;;;17.34;23.75;100316.81;107037;1258;76142;-39
2023/05/11 09:03:34;;;;;;;3.20;2.20;;;;;;;17.17;23.44;100317.16;107139;1262;70281;-39
2023/05/11 09:06:03;;;;;;;4.90;2.40;;;;;;;17.07;23.52;100321.48;107140;1258;74938;-40
2023/05/11 09:08:30;;;;;;;4.70;2.20;;;;;;;16.99;23.43;100322.20;107058;1260;62645;-39
2023/05/11 09:10:57;;;;;;;4.20;2.30;;;;;;;16.91;24.01;100325.25;106998;1262;61203;-40
2023/05/11 09:13:25;;;;;;;5.10;2.60;;;;;;;16.88;24.20;100322.25;106991;1262;75846;-39
2023/05/11 09:15:52;;;;;;;4.70;2.60;;;;;;;16.91;24.47;100318.14;107022;1258;70192;-39
2023/05/11 09:18:20;;;;;;;4.30;2.70;;;;;;;16.94;24.66;100315.66;107201;1262;74730;-39
2023/05/11 09:20:47;;;;;;;3.80;2.60;;;;;;;16.95;25.45;100319.02;107078;1262;62444;-39
2023/05/11 09:23:16;;;;;;;7.90;3.80;;;;;;;16.91;24.86;100312.52;106847;1262;61394;-39
2023/05/11 09:25:43;;;;;;;8.10;3.20;;;;;;;16.84;24.54;100317.54;107130;1262;75488;-39
2023/05/11 09:28:11;;;;;;;6.20;3.30;;;;;;;16.76;24.63;100310.79;107088;1264;68989;-39
2023/05/11 09:30:42;;;;;;;5.30;3.10;;;;;;;16.77;25.64;100307.84;107197;1261;73047;-39
2023/05/11 09:33:10;;;;;;;3.80;3.00;;;;;;;16.90;26.32;100305.29;107048;1261;62363;-39
2023/05/11 09:35:37;;;;;;;5.70;3.30;;;;;;;17.02;25.81;100308.36;107150;1262;62405;-40
2023/05/11 09:38:09;;;;;;;4.70;3.00;;;;;;;17.09;25.95;100300.35;107086;1258;75450;-39
2023/05/11 09:40:36;;;;;;;2.90;2.60;;;;;;;17.12;25.15;100302.33;107123;1262;70250;-39
2023/05/11 09:43:17;;;;;;;4.60;3.10;;;;;;;17.16;25.57;100303.77;107100;1257;74608;-39
2023/05/11 09:45:46;;;;;;;5.10;2.70;;;;;;;17.23;25.64;100299.91;107088;1258;62661;-39
2023/05/11 09:48:19;;;;;;;5.10;3.30;;;;;;;17.37;25.55;100296.31;107102;1262;61146;-40
2023/05/11 09:50:47;;;;;;;3.60;2.70;;;;;;;17.53;24.95;100292.73;107116;1257;73096;-40
2023/05/11 09:53:15;;;;;;;6.70;2.90;;;;;;;17.65;24.71;100283.96;107103;1258;69259;-40
2023/05/11 09:55:55;;;;;;;6.20;3.20;;;;;;;17.79;25.07;100286.23;107048;1263;74962;-39
2023/05/11 09:58:22;;;;;;;5.20;2.90;;;;;;;18.09;25.32;100283.52;107086;1258;61132;-40
2023/05/11 10:00:51;;;;;;;8.50;3.20;;;;;;;18.44;25.21;100276.25;107058;1262;61705;-40
2023/05/11 10:03:18;;;;;;;5.50;2.90;;;;;;;18.83;24.15;100277.48;107140;1262;76753;-39
2023/05/11 10:05:56;;;;;;;6.80;3.50;;;;;;;19.11;22.58;100275.18;107120;1262;69953;-39
2023/05/11 10:08:29;;;;;;;3.80;2.90;;;;;;;19.28;21.90;100269.27;107119;1257;75003;-40
2023/05/11 10:10:56;;;;;;;5.90;2.80;;;;;;;19.48;21.22;100261.86;107269;1263;60414;-40
2023/05/11 10:13:23;;;;;;;5.10;2.90;;;;;;;19.63;21.52;100264.48;107164;1261;61188;-40
2023/05/11 10:15:51;;;;;;;3.80;3.00;;;;;;;19.78;21.49;100262.23;107031;1262;76161;-40
2023/05/11 10:18:18;;;;;;;3.40;2.60;;;;;;;19.97;21.49;100260.89;107057;1262;69455;-40
2023/05/11 10:20:46;;;;;;;4.80;2.80;;;;;;;20.01;20.42;100259.05;106983;1262;74484;-40
2023/05/11 10:23:13;;;;;;;4.60;2.60;;;;;;;19.83;20.67;100257.01;107030;1258;62403;-40
2023/05/11 10:25:41;;;;;;;5.40;3.00;;;;;;;19.66;20.82;100255.91;106980;1257;62823;-40
2023/05/11 10:28:09;;;;;;;5.30;2.60;;;;;;;19.53;21.30;100256.98;107043;1257;75740;-40
2023/05/11 10:30:36;;;;;;;5.80;2.90;;;;;;;19.50;21.36;100253.91;107104;1262;68678;-40
2023/05/11 10:33:03;;;;;;;3.00;2.20;;;;;;;19.49;21.26;100251.10;106920;1258;74933;-40
2023/05/11 10:35:31;;;;;;;4.10;2.50;;;;;;;19.47;21.04;100244.02;107064;1262;62028;-39
2023/05/11 10:37:58;;;;;;;3.60;2.70;;;;;;;19.47;20.86;100243.08;107098;1258;61509;-40
2023/05/11 10:40:25;;;;;;;2.80;2.40;;;;;;;19.41;21.36;100241.80;107019;1265;76195;-40
2023/05/11 10:43:03;;;;;;;3.80;2.60;;;;;;;19.55;21.22;100237.56;107109;1257;69855;-40
2023/05/11 10:45:56;;;;;;;7.20;2.30;;;;;;;19.74;20.80;100236.53;107114;1258;74762;-40
2023/05/11 10:48:33;;;;;;;3.30;2.40;;;;;;;19.89;20.34;100235.44;106902;1257;249713;-40
2023/05/11 10:52:40;;;;;;;2.80;2.20;;;;;;;20.13;19.52;100228.94;104089;1291;600320;-39
2023/05/11 10:55:26;;;;;;;3.50;2.40;;;;;;;20.36;19.34;100224.02;106583;1267;62650;-39
2023/05/11 10:58:09;;;;;;;3.10;2.50;;;;;;;20.60;19.89;100223.30;106746;1267;60579;-39
2023/05/11 11:01:16;;;;;;;4.40;2.60;;;;;;;20.86;18.65;100222.52;106702;1266;72904;-39
2023/05/11 11:04:01;;;;;;;5.20;2.40;;;;;;;20.86;19.11;100221.24;106701;1267;69616;-39
2023/05/11 11:06:28;;;;;;;4.30;2.60;;;;;;;20.80;19.58;100224.70;106655;1267;201374;-39
2023/05/11 11:08:57;;;;;;;3.90;2.30;;;;;;;20.99;20.39;100219.16;106792;1268;60679;-39
2023/05/11 11:11:30;;;;;;;6.40;2.60;;;;;;;21.46;20.12;100215.36;106981;1264;62431;-39
2023/05/11 11:14:01;;;;;;;5.10;2.40;;;;;;;21.99;19.15;100213.05;106657;1264;72372;-39
2023/05/11 11:16:29;;;;;;;4.50;2.50;;;;;;;22.34;18.50;100210.24;106760;1263;69975;-39
2023/05/11 11:19:27;;;;;;;3.20;2.30;;;;;;;22.55;18.29;100203.91;106681;1263;74563;-39
2023/05/11 11:21:59;;;;;;;3.00;2.30;;;;;;;22.69;17.27;100199.98;106715;1264;62152;-39
2023/05/11 11:24:44;;;;;;;4.30;2.30;;;;;;;22.84;17.27;100198.93;106916;1264;60507;-39
2023/05/11 11:27:12;;;;;;;3.70;2.60;;;;;;;22.92;16.67;100197.94;106826;1264;74573;-40